Time,TemperatureF,DewpointF,PressureIn,WindDirection,WindDirectionDegrees,WindSpeedMPH,WindSpeedGustMPH,Humidity,HourlyPrecipIn,Conditions,Clouds,dailyrainin,SoftwareType,DateUTC
2013-09-08 00:10:00,79.0,64.8,29.93,ESE,120,3.0,3.0,62,0.00,CLR,CLR,0.00,WeatherDisplay:10.37,2013-09-08 05:10:00,
2013-09-08 00:40:00,78.1,64.9,29.93,South,180,3.0,3.0,64,0.00,FEW,FEW,0.00,WeatherDisplay:10.37,2013-09-08 05:40:00,
2013-09-08 01:10:00,78.1,64.9,29.93,South,180,3.0,3.0,64,0.00,FEW,FEW,0.00,WeatherDisplay:10.37,2013-09-08 06:10:00,
2013-09-08 01:40:00,77.0,65.6,29.92,SSE,150,3.0,3.0,68,0.00,SCT,SCT,0.00,WeatherDisplay:10.37,2013-09-08 06:40:00,
2013-09-08 02:10:00,77.0,65.6,29.92,SSE,150,3.0,3.0,68,0.00,SCT,SCT,0.00,WeatherDisplay:10.37,2013-09-08 07:10:00,
2013-09-08 02:40:00,75.0,66.6,29.92,SSE,150,0.0,0.0,75,0.00,CLR,CLR,0.00,WeatherDisplay:10.37,2013-09-08 07:40:00,
2013-09-08 03:10:00,75.0,66.6,29.92,SSE,150,0.0,0.0,75,0.00,CLR,CLR,0.00,WeatherDisplay:10.37,2013-09-08 08:10:00,
2013-09-08 03:40:00,73.0,66.9,29.93,SSW,200,5.0,5.0,81,0.00,CLR,CLR,0.00,WeatherDisplay:10.37,2013-09-08 08:40:00,
2013-09-08 04:10:00,73.0,66.9,29.93,SSW,200,5.0,5.0,81,0.00,CLR,CLR,0.00,WeatherDisplay:10.37,2013-09-08 09:10:00,
2013-09-08 04:40:00,73.0,65.8,29.92,SSW,200,0.0,0.0,78,0.00,FEW,FEW,0.00,WeatherDisplay:10.37,2013-09-08 09:40:00,
2013-09-08 05:10:00,73.0,65.8,29.92,SSW,200,0.0,0.0,78,0.00,FEW,FEW,0.00,WeatherDisplay:10.37,2013-09-08 10:10:00,
2013-09-08 05:40:00,73.9,65.9,29.93,SSW,200,0.0,0.0,76,0.00,BKN,BKN,0.00,WeatherDisplay:10.37,2013-09-08 10:40:00,
2013-09-08 06:10:00,73.9,65.9,29.93,SSW,200,0.0,0.0,76,0.00,BKN,BKN,0.00,WeatherDisplay:10.37,2013-09-08 11:10:00,
2013-09-08 06:40:00,72.0,65.8,29.95,SSW,200,0.0,0.0,81,0.00,SCT,SCT,0.00,WeatherDisplay:10.37,2013-09-08 11:40:00,
2013-09-08 07:10:00,72.0,65.8,29.95,SSW,200,0.0,0.0,81,0.00,SCT,SCT,0.00,WeatherDisplay:10.37,2013-09-08 12:10:00,
2013-09-08 07:40:00,72.0,66.9,29.96,East,100,5.0,5.0,84,0.00,CLR,CLR,0.00,WeatherDisplay:10.37,2013-09-08 12:40:00,
2013-09-08 08:10:00,72.0,66.9,29.96,East,100,5.0,5.0,84,0.00,CLR,CLR,0.00,WeatherDisplay:10.37,2013-09-08 13:10:00,
2013-09-08 08:40:00,75.0,66.6,29.97,ENE,70,10.0,10.0,75,0.00,FEW,FEW,0.00,WeatherDisplay:10.37,2013-09-08 13:40:00,
2013-09-08 09:10:00,75.0,66.6,29.97,ENE,70,10.0,10.0,75,0.00,FEW,FEW,0.00,WeatherDisplay:10.37,2013-09-08 14:10:00,
2013-09-08 09:40:00,78.1,65.8,29.98,East,90,13.0,20.0,66,0.00,FEW,FEW,0.00,WeatherDisplay:10.37,2013-09-08 14:40:00,
2013-09-08 10:10:00,78.1,65.8,29.98,East,90,13.0,20.0,66,0.00,FEW,FEW,0.00,WeatherDisplay:10.37,2013-09-08 15:10:00,
2013-09-08 10:40:00,78.1,65.8,30.00,East,90,9.0,9.0,66,0.00,CLR,CLR,0.00,WeatherDisplay:10.37,2013-09-08 15:40:00,
2013-09-08 11:10:00,78.1,65.8,30.00,East,90,9.0,9.0,66,0.00,CLR,CLR,0.00,WeatherDisplay:10.37,2013-09-08 16:10:00,
2013-09-08 11:40:00,80.1,66.8,29.98,East,90,8.0,8.0,64,0.00,CLR,CLR,0.00,WeatherDisplay:10.37,2013-09-08 16:40:00,
2013-09-08 12:10:00,80.1,66.8,29.98,East,90,8.0,8.0,64,0.00,CLR,CLR,0.00,WeatherDisplay:10.37,2013-09-08 17:10:00,
2013-09-08 12:40:00,82.0,67.7,29.98,East,90,9.0,9.0,62,0.00,CLR,CLR,0.00,WeatherDisplay:10.37,2013-09-08 17:40:00,
2013-09-08 13:10:00,82.0,67.7,29.98,East,90,9.0,9.0,62,0.00,CLR,CLR,0.00,WeatherDisplay:10.37,2013-09-08 18:10:00,
2013-09-08 13:40:00,84.9,68.0,29.97,East,100,9.0,9.0,57,0.00,CLR,CLR,0.00,WeatherDisplay:10.37,2013-09-08 18:40:00,
2013-09-08 14:10:00,84.9,68.0,29.97,East,100,9.0,9.0,57,0.00,CLR,CLR,0.00,WeatherDisplay:10.37,2013-09-08 19:10:00,
2013-09-08 14:40:00,86.0,68.0,29.95,SE,140,7.0,7.0,55,0.00,FEW,FEW,0.00,WeatherDisplay:10.37,2013-09-08 19:40:00,
2013-09-08 15:10:00,86.0,68.0,29.95,SE,140,7.0,7.0,55,0.00,FEW,FEW,0.00,WeatherDisplay:10.37,2013-09-08 20:10:00,
2013-09-08 15:40:00,87.1,67.9,29.93,SSE,150,8.0,8.0,53,0.00,FEW,FEW,0.00,WeatherDisplay:10.37,2013-09-08 20:40:00,
2013-09-08 16:10:00,87.1,67.9,29.93,SSE,150,8.0,8.0,53,0.00,FEW,FEW,0.00,WeatherDisplay:10.37,2013-09-08 21:10:00,
2013-09-08 16:40:00,89.1,66.8,29.91,SSE,160,9.0,9.0,48,0.00,FEW,FEW,0.00,WeatherDisplay:10.37,2013-09-08 21:40:00,
2013-09-08 17:10:00,89.1,66.8,29.91,SSE,160,9.0,9.0,48,0.00,FEW,FEW,0.00,WeatherDisplay:10.37,2013-09-08 22:10:00,
2013-09-08 17:40:00,87.1,66.8,29.90,SE,130,12.0,12.0,51,0.00,CLR,CLR,0.00,WeatherDisplay:10.37,2013-09-08 22:40:00,
2013-09-08 18:10:00,87.1,66.8,29.90,SE,130,12.0,12.0,51,0.00,CLR,CLR,0.00,WeatherDisplay:10.37,2013-09-08 23:10:00,
2013-09-08 18:40:00,84.9,66.4,29.91,SSE,160,8.0,8.0,54,0.00,SCT,SCT,0.00,WeatherDisplay:10.37,2013-09-08 23:40:00,
2013-09-08 19:10:00,84.9,66.4,29.91,SSE,160,8.0,8.0,54,0.00,SCT,SCT,0.00,WeatherDisplay:10.37,2013-09-09 00:10:00,
2013-09-08 19:40:00,84.0,67.7,29.91,SSE,160,7.0,7.0,58,0.00,SCT,SCT,0.00,WeatherDisplay:10.37,2013-09-09 00:40:00,
2013-09-08 20:10:00,84.0,67.7,29.91,SSE,160,7.0,7.0,58,0.00,SCT,SCT,0.00,WeatherDisplay:10.37,2013-09-09 01:10:00,
2013-09-08 20:40:00,81.0,67.6,29.92,SSE,160,5.0,5.0,64,0.00,CLR,CLR,0.00,WeatherDisplay:10.37,2013-09-09 01:40:00,
2013-09-08 21:10:00,81.0,67.6,29.92,SSE,160,5.0,5.0,64,0.00,CLR,CLR,0.00,WeatherDisplay:10.37,2013-09-09 02:10:00,
2013-09-08 21:40:00,79.0,67.9,29.93,South,180,5.0,5.0,69,0.00,CLR,CLR,0.00,WeatherDisplay:10.37,2013-09-09 02:40:00,
2013-09-08 22:10:00,79.0,67.9,29.93,South,180,5.0,5.0,69,0.00,CLR,CLR,0.00,WeatherDisplay:10.37,2013-09-09 03:10:00,
2013-09-08 22:40:00,78.1,67.9,29.93,SSE,150,5.0,5.0,71,0.00,CLR,CLR,0.00,WeatherDisplay:10.37,2013-09-09 03:40:00,
2013-09-08 23:10:00,78.1,67.9,29.93,SSE,150,5.0,5.0,71,0.00,CLR,CLR,0.00,WeatherDisplay:10.37,2013-09-09 04:10:00,
2013-09-08 23:40:00,75.9,67.8,29.93,South,170,7.0,7.0,76,0.00,CLR,CLR,0.00,WeatherDisplay:10.37,2013-09-09 04:40:00,